sensor_id;sensor_type;location;lat;lon;timestamp;temperature;humidity
19941;DHT22;10132;50.864;5.176;2022-09-13T00:00:53;17.60;99.90
19941;DHT22;10132;50.864;5.176;2022-09-13T00:02:54;17.50;99.90
19941;DHT22;10132;50.864;5.176;2022-09-13T00:04:57;17.40;99.90
19941;DHT22;10132;50.864;5.176;2022-09-13T00:06:59;17.40;99.90
19941;DHT22;10132;50.864;5.176;2022-09-13T00:09:01;17.40;99.90
19941;DHT22;10132;50.864;5.176;2022-09-13T00:11:02;17.40;99.90
19941;DHT22;10132;50.864;5.176;2022-09-13T00:13:05;17.30;99.90
19941;DHT22;10132;50.864;5.176;2022-09-13T00:15:08;17.40;99.90
19941;DHT22;10132;50.864;5.176;2022-09-13T00:17:12;17.40;99.90
19941;DHT22;10132;50.864;5.176;2022-09-13T00:19:15;17.50;99.90
19941;DHT22;10132;50.864;5.176;2022-09-13T00:21:18;17.40;99.90
19941;DHT22;10132;50.864;5.176;2022-09-13T00:23:21;17.40;99.90
19941;DHT22;10132;50.864;5.176;2022-09-13T00:25:23;17.30;99.90
19941;DHT22;10132;50.864;5.176;2022-09-13T00:27:25;17.10;99.90
19941;DHT22;10132;50.864;5.176;2022-09-13T00:29:27;17.10;99.90
19941;DHT22;10132;50.864;5.176;2022-09-13T00:31:29;17.10;99.90
19941;DHT22;10132;50.864;5.176;2022-09-13T00:33:32;17.00;99.90
19941;DHT22;10132;50.864;5.176;2022-09-13T00:35:34;16.90;99.90
19941;DHT22;10132;50.864;5.176;2022-09-13T00:37:36;17.00;99.90
19941;DHT22;10132;50.864;5.176;2022-09-13T00:39:38;16.90;99.90
19941;DHT22;10132;50.864;5.176;2022-09-13T00:41:40;16.80;99.90
19941;DHT22;10132;50.864;5.176;2022-09-13T00:43:46;16.60;99.90
19941;DHT22;10132;50.864;5.176;2022-09-13T00:45:48;16.40;99.90
19941;DHT22;10132;50.864;5.176;2022-09-13T00:47:54;16.40;99.90
19941;DHT22;10132;50.864;5.176;2022-09-13T00:50:01;16.40;99.90
19941;DHT22;10132;50.864;5.176;2022-09-13T00:52:05;16.40;99.90
19941;DHT22;10132;50.864;5.176;2022-09-13T00:54:09;16.50;99.90
19941;DHT22;10132;50.864;5.176;2022-09-13T00:56:16;16.40;99.90
19941;DHT22;10132;50.864;5.176;2022-09-13T00:58:22;16.50;99.90
19941;DHT22;10132;50.864;5.176;2022-09-13T01:00:26;16.60;99.90
19941;DHT22;10132;50.864;5.176;2022-09-13T01:02:28;16.80;99.90
19941;DHT22;10132;50.864;5.176;2022-09-13T01:04:31;16.90;99.90
19941;DHT22;10132;50.864;5.176;2022-09-13T01:06:37;17.00;99.90
19941;DHT22;10132;50.864;5.176;2022-09-13T01:08:42;17.10;99.90
19941;DHT22;10132;50.864;5.176;2022-09-13T01:10:47;16.90;99.90
19941;DHT22;10132;50.864;5.176;2022-09-13T01:12:53;17.00;99.90
19941;DHT22;10132;50.864;5.176;2022-09-13T01:14:58;17.00;99.90
19941;DHT22;10132;50.864;5.176;2022-09-13T01:17:01;16.90;99.90
19941;DHT22;10132;50.864;5.176;2022-09-13T01:19:03;17.00;99.90
19941;DHT22;10132;50.864;5.176;2022-09-13T01:21:30;17.00;99.90
19941;DHT22;10132;50.864;5.176;2022-09-13T01:23:55;17.10;99.90
19941;DHT22;10132;50.864;5.176;2022-09-13T01:26:21;17.10;99.90
19941;DHT22;10132;50.864;5.176;2022-09-13T01:31:07;16.90;99.90
19941;DHT22;10132;50.864;5.176;2022-09-13T01:33:25;17.00;99.90
19941;DHT22;10132;50.864;5.176;2022-09-13T01:35:42;17.20;99.90
19941;DHT22;10132;50.864;5.176;2022-09-13T01:37:51;17.30;99.90
19941;DHT22;10132;50.864;5.176;2022-09-13T01:40:15;17.50;99.90
19941;DHT22;10132;50.864;5.176;2022-09-13T01:42:27;17.60;99.90
19941;DHT22;10132;50.864;5.176;2022-09-13T01:44:42;17.70;99.90
19941;DHT22;10132;50.864;5.176;2022-09-13T01:46:52;17.80;99.90
19941;DHT22;10132;50.864;5.176;2022-09-13T01:48:59;17.90;99.90
19941;DHT22;10132;50.864;5.176;2022-09-13T01:51:06;17.90;99.90
19941;DHT22;10132;50.864;5.176;2022-09-13T01:53:19;17.90;99.90
19941;DHT22;10132;50.864;5.176;2022-09-13T01:55:30;17.90;99.90
19941;DHT22;10132;50.864;5.176;2022-09-13T01:57:37;17.80;99.90
19941;DHT22;10132;50.864;5.176;2022-09-13T01:59:48;17.70;99.90
19941;DHT22;10132;50.864;5.176;2022-09-13T02:01:56;17.80;99.90
19941;DHT22;10132;50.864;5.176;2022-09-13T02:04:03;17.60;99.90
19941;DHT22;10132;50.864;5.176;2022-09-13T02:06:10;17.60;99.90
19941;DHT22;10132;50.864;5.176;2022-09-13T02:08:17;17.70;99.90
19941;DHT22;10132;50.864;5.176;2022-09-13T02:10:23;17.90;99.90
19941;DHT22;10132;50.864;5.176;2022-09-13T02:12:27;18.10;99.90
19941;DHT22;10132;50.864;5.176;2022-09-13T02:14:35;18.20;99.90
19941;DHT22;10132;50.864;5.176;2022-09-13T02:16:39;18.30;99.90
19941;DHT22;10132;50.864;5.176;2022-09-13T02:18:46;18.20;99.90
19941;DHT22;10132;50.864;5.176;2022-09-13T02:20:50;18.20;99.90
19941;DHT22;10132;50.864;5.176;2022-09-13T02:22:57;18.30;99.90
19941;DHT22;10132;50.864;5.176;2022-09-13T02:25:06;18.30;99.90
19941;DHT22;10132;50.864;5.176;2022-09-13T02:27:14;18.20;99.90
19941;DHT22;10132;50.864;5.176;2022-09-13T02:29:19;18.20;99.90
19941;DHT22;10132;50.864;5.176;2022-09-13T02:31:28;18.30;99.90
19941;DHT22;10132;50.864;5.176;2022-09-13T02:33:34;18.30;99.90
19941;DHT22;10132;50.864;5.176;2022-09-13T02:35:41;18.30;99.90
19941;DHT22;10132;50.864;5.176;2022-09-13T02:37:52;18.20;99.90
19941;DHT22;10132;50.864;5.176;2022-09-13T02:39:59;18.30;99.90
19941;DHT22;10132;50.864;5.176;2022-09-13T02:42:06;18.30;99.90
19941;DHT22;10132;50.864;5.176;2022-09-13T02:44:12;18.10;99.90
19941;DHT22;10132;50.864;5.176;2022-09-13T02:46:24;18.00;99.90
19941;DHT22;10132;50.864;5.176;2022-09-13T02:48:35;17.90;99.90
19941;DHT22;10132;50.864;5.176;2022-09-13T02:50:48;17.80;99.90
19941;DHT22;10132;50.864;5.176;2022-09-13T02:53:01;17.90;99.90
19941;DHT22;10132;50.864;5.176;2022-09-13T02:55:11;17.90;99.90
19941;DHT22;10132;50.864;5.176;2022-09-13T02:57:20;17.90;99.90
19941;DHT22;10132;50.864;5.176;2022-09-13T02:59:27;17.90;99.90
19941;DHT22;10132;50.864;5.176;2022-09-13T03:01:29;18.00;99.90
19941;DHT22;10132;50.864;5.176;2022-09-13T03:03:31;18.00;99.90
19941;DHT22;10132;50.864;5.176;2022-09-13T03:05:34;18.10;99.90
19941;DHT22;10132;50.864;5.176;2022-09-13T03:07:37;18.10;99.90
19941;DHT22;10132;50.864;5.176;2022-09-13T03:09:42;18.10;99.90
19941;DHT22;10132;50.864;5.176;2022-09-13T03:11:58;17.90;99.90
19941;DHT22;10132;50.864;5.176;2022-09-13T03:14:24;17.80;99.90
19941;DHT22;10132;50.864;5.176;2022-09-13T03:16:40;17.70;99.90
19941;DHT22;10132;50.864;5.176;2022-09-13T03:18:51;17.70;99.90
19941;DHT22;10132;50.864;5.176;2022-09-13T03:21:09;17.70;99.90
19941;DHT22;10132;50.864;5.176;2022-09-13T03:23:33;17.70;99.90
19941;DHT22;10132;50.864;5.176;2022-09-13T03:28:13;17.70;99.90
19941;DHT22;10132;50.864;5.176;2022-09-13T03:30:18;17.60;99.90
19941;DHT22;10132;50.864;5.176;2022-09-13T03:32:25;17.60;99.90
19941;DHT22;10132;50.864;5.176;2022-09-13T03:34:34;17.60;99.90
19941;DHT22;10132;50.864;5.176;2022-09-13T03:36:43;17.60;99.90
19941;DHT22;10132;50.864;5.176;2022-09-13T03:38:54;17.40;99.90
19941;DHT22;10132;50.864;5.176;2022-09-13T03:41:01;17.40;99.90
19941;DHT22;10132;50.864;5.176;2022-09-13T03:43:10;17.40;99.90
19941;DHT22;10132;50.864;5.176;2022-09-13T03:45:16;17.40;99.90
19941;DHT22;10132;50.864;5.176;2022-09-13T03:47:21;17.50;99.90
19941;DHT22;10132;50.864;5.176;2022-09-13T03:49:26;17.50;99.90
19941;DHT22;10132;50.864;5.176;2022-09-13T03:51:30;17.50;99.90
19941;DHT22;10132;50.864;5.176;2022-09-13T03:53:35;17.40;99.90
19941;DHT22;10132;50.864;5.176;2022-09-13T03:55:41;17.40;99.90
19941;DHT22;10132;50.864;5.176;2022-09-13T03:57:43;17.30;99.90
19941;DHT22;10132;50.864;5.176;2022-09-13T03:59:47;17.30;99.90
19941;DHT22;10132;50.864;5.176;2022-09-13T04:01:49;17.20;99.90
19941;DHT22;10132;50.864;5.176;2022-09-13T04:03:52;17.20;99.90
19941;DHT22;10132;50.864;5.176;2022-09-13T04:05:54;17.20;99.90
19941;DHT22;10132;50.864;5.176;2022-09-13T04:07:59;17.10;99.90
19941;DHT22;10132;50.864;5.176;2022-09-13T04:10:01;17.10;99.90
19941;DHT22;10132;50.864;5.176;2022-09-13T04:12:05;17.20;99.90
19941;DHT22;10132;50.864;5.176;2022-09-13T04:14:07;17.20;99.90
19941;DHT22;10132;50.864;5.176;2022-09-13T04:16:10;17.30;99.90
19941;DHT22;10132;50.864;5.176;2022-09-13T04:18:12;17.20;99.90
19941;DHT22;10132;50.864;5.176;2022-09-13T04:20:14;17.20;99.90
19941;DHT22;10132;50.864;5.176;2022-09-13T04:22:16;17.20;99.90
19941;DHT22;10132;50.864;5.176;2022-09-13T04:24:18;17.20;99.90
19941;DHT22;10132;50.864;5.176;2022-09-13T04:26:20;17.10;99.90
19941;DHT22;10132;50.864;5.176;2022-09-13T04:28:24;17.10;99.90
19941;DHT22;10132;50.864;5.176;2022-09-13T04:30:26;17.20;99.90
19941;DHT22;10132;50.864;5.176;2022-09-13T04:32:29;17.20;99.90
19941;DHT22;10132;50.864;5.176;2022-09-13T04:34:33;17.20;99.90
19941;DHT22;10132;50.864;5.176;2022-09-13T04:36:34;17.20;99.90
19941;DHT22;10132;50.864;5.176;2022-09-13T04:38:37;17.20;99.90
19941;DHT22;10132;50.864;5.176;2022-09-13T04:40:39;17.20;99.90
19941;DHT22;10132;50.864;5.176;2022-09-13T04:42:43;17.10;99.90
19941;DHT22;10132;50.864;5.176;2022-09-13T04:44:46;17.00;99.90
19941;DHT22;10132;50.864;5.176;2022-09-13T04:46:49;17.00;99.90
19941;DHT22;10132;50.864;5.176;2022-09-13T04:48:51;17.00;99.90
19941;DHT22;10132;50.864;5.176;2022-09-13T04:51:00;17.00;99.90
19941;DHT22;10132;50.864;5.176;2022-09-13T04:53:02;17.00;99.90
19941;DHT22;10132;50.864;5.176;2022-09-13T04:55:05;17.10;99.90
19941;DHT22;10132;50.864;5.176;2022-09-13T04:57:07;17.20;99.90
19941;DHT22;10132;50.864;5.176;2022-09-13T04:59:09;17.40;99.90
19941;DHT22;10132;50.864;5.176;2022-09-13T05:01:13;17.50;99.90
19941;DHT22;10132;50.864;5.176;2022-09-13T05:03:15;17.50;99.90
19941;DHT22;10132;50.864;5.176;2022-09-13T05:05:17;17.60;99.90
19941;DHT22;10132;50.864;5.176;2022-09-13T05:07:19;17.80;99.90
19941;DHT22;10132;50.864;5.176;2022-09-13T05:09:21;17.80;99.90
19941;DHT22;10132;50.864;5.176;2022-09-13T05:11:24;17.80;99.90
19941;DHT22;10132;50.864;5.176;2022-09-13T05:13:26;17.70;99.90
19941;DHT22;10132;50.864;5.176;2022-09-13T05:15:28;17.70;99.90
19941;DHT22;10132;50.864;5.176;2022-09-13T05:17:31;17.70;99.90
19941;DHT22;10132;50.864;5.176;2022-09-13T05:19:33;17.70;99.90
19941;DHT22;10132;50.864;5.176;2022-09-13T05:21:35;17.70;99.90
19941;DHT22;10132;50.864;5.176;2022-09-13T05:23:37;17.70;99.90
19941;DHT22;10132;50.864;5.176;2022-09-13T05:25:39;17.80;99.90
19941;DHT22;10132;50.864;5.176;2022-09-13T05:27:41;17.80;99.90
19941;DHT22;10132;50.864;5.176;2022-09-13T05:29:45;17.80;99.90
19941;DHT22;10132;50.864;5.176;2022-09-13T05:31:47;17.80;99.90
19941;DHT22;10132;50.864;5.176;2022-09-13T05:33:54;17.90;99.90
19941;DHT22;10132;50.864;5.176;2022-09-13T05:35:57;17.80;99.90
19941;DHT22;10132;50.864;5.176;2022-09-13T05:37:59;17.70;99.90
19941;DHT22;10132;50.864;5.176;2022-09-13T05:40:01;17.70;99.90
19941;DHT22;10132;50.864;5.176;2022-09-13T05:42:03;17.70;99.90
19941;DHT22;10132;50.864;5.176;2022-09-13T05:44:05;17.70;99.90
19941;DHT22;10132;50.864;5.176;2022-09-13T05:46:10;17.70;99.90
19941;DHT22;10132;50.864;5.176;2022-09-13T05:48:12;17.60;99.90
19941;DHT22;10132;50.864;5.176;2022-09-13T05:50:15;17.50;99.90
19941;DHT22;10132;50.864;5.176;2022-09-13T05:52:17;17.50;99.90
19941;DHT22;10132;50.864;5.176;2022-09-13T05:54:19;17.50;99.90
19941;DHT22;10132;50.864;5.176;2022-09-13T05:56:22;17.60;99.90
19941;DHT22;10132;50.864;5.176;2022-09-13T05:58:24;17.60;99.90
19941;DHT22;10132;50.864;5.176;2022-09-13T06:00:27;17.60;99.90
19941;DHT22;10132;50.864;5.176;2022-09-13T06:02:30;17.60;99.90
19941;DHT22;10132;50.864;5.176;2022-09-13T06:04:32;17.60;99.90
19941;DHT22;10132;50.864;5.176;2022-09-13T06:06:35;17.60;99.90
19941;DHT22;10132;50.864;5.176;2022-09-13T06:08:37;17.80;99.90
19941;DHT22;10132;50.864;5.176;2022-09-13T06:10:39;17.90;99.90
19941;DHT22;10132;50.864;5.176;2022-09-13T06:12:41;17.90;99.90
19941;DHT22;10132;50.864;5.176;2022-09-13T06:14:43;17.90;99.90
19941;DHT22;10132;50.864;5.176;2022-09-13T06:16:45;17.80;99.90
19941;DHT22;10132;50.864;5.176;2022-09-13T06:18:47;18.00;99.90
19941;DHT22;10132;50.864;5.176;2022-09-13T06:20:49;18.00;99.90
19941;DHT22;10132;50.864;5.176;2022-09-13T06:22:53;18.10;99.90
19941;DHT22;10132;50.864;5.176;2022-09-13T06:24:54;18.30;99.90
19941;DHT22;10132;50.864;5.176;2022-09-13T06:26:57;18.30;99.90
19941;DHT22;10132;50.864;5.176;2022-09-13T06:28:58;18.30;99.90
19941;DHT22;10132;50.864;5.176;2022-09-13T06:31:01;18.30;99.90
19941;DHT22;10132;50.864;5.176;2022-09-13T06:33:04;18.20;99.90
19941;DHT22;10132;50.864;5.176;2022-09-13T06:35:07;18.20;99.90
19941;DHT22;10132;50.864;5.176;2022-09-13T06:37:09;18.20;99.90
19941;DHT22;10132;50.864;5.176;2022-09-13T06:39:12;18.20;99.90
19941;DHT22;10132;50.864;5.176;2022-09-13T06:41:16;18.10;99.90
19941;DHT22;10132;50.864;5.176;2022-09-13T06:43:18;18.10;99.90
19941;DHT22;10132;50.864;5.176;2022-09-13T06:45:20;18.20;99.90
19941;DHT22;10132;50.864;5.176;2022-09-13T06:47:23;18.30;99.90
19941;DHT22;10132;50.864;5.176;2022-09-13T06:49:25;18.40;99.90
19941;DHT22;10132;50.864;5.176;2022-09-13T06:51:29;18.60;99.90
19941;DHT22;10132;50.864;5.176;2022-09-13T06:53:31;18.70;99.90
19941;DHT22;10132;50.864;5.176;2022-09-13T06:55:35;18.70;99.90
19941;DHT22;10132;50.864;5.176;2022-09-13T06:57:37;18.80;99.90
19941;DHT22;10132;50.864;5.176;2022-09-13T06:59:39;18.80;99.90
19941;DHT22;10132;50.864;5.176;2022-09-13T07:01:42;18.70;99.90
19941;DHT22;10132;50.864;5.176;2022-09-13T07:03:45;18.70;99.90
19941;DHT22;10132;50.864;5.176;2022-09-13T07:05:47;18.80;99.90
19941;DHT22;10132;50.864;5.176;2022-09-13T07:07:49;18.90;99.90
19941;DHT22;10132;50.864;5.176;2022-09-13T07:09:51;19.00;99.90
19941;DHT22;10132;50.864;5.176;2022-09-13T07:11:55;19.00;99.90
19941;DHT22;10132;50.864;5.176;2022-09-13T07:13:58;19.10;99.90
19941;DHT22;10132;50.864;5.176;2022-09-13T07:16:01;19.20;99.90
19941;DHT22;10132;50.864;5.176;2022-09-13T07:18:04;19.20;99.90
19941;DHT22;10132;50.864;5.176;2022-09-13T07:20:07;19.30;99.90
19941;DHT22;10132;50.864;5.176;2022-09-13T07:22:09;19.40;99.90
19941;DHT22;10132;50.864;5.176;2022-09-13T07:24:11;19.60;99.90
19941;DHT22;10132;50.864;5.176;2022-09-13T07:26:13;19.70;99.90
19941;DHT22;10132;50.864;5.176;2022-09-13T07:28:17;19.90;99.90
19941;DHT22;10132;50.864;5.176;2022-09-13T07:30:19;20.10;99.90
19941;DHT22;10132;50.864;5.176;2022-09-13T07:32:20;20.30;99.90
19941;DHT22;10132;50.864;5.176;2022-09-13T07:34:24;20.40;99.90
19941;DHT22;10132;50.864;5.176;2022-09-13T07:36:28;20.30;99.90
19941;DHT22;10132;50.864;5.176;2022-09-13T07:38:30;20.40;99.90
19941;DHT22;10132;50.864;5.176;2022-09-13T07:40:31;20.60;99.90
19941;DHT22;10132;50.864;5.176;2022-09-13T07:42:35;20.80;99.90
19941;DHT22;10132;50.864;5.176;2022-09-13T07:44:38;21.00;99.90
19941;DHT22;10132;50.864;5.176;2022-09-13T07:46:40;21.00;99.90
19941;DHT22;10132;50.864;5.176;2022-09-13T07:48:44;21.00;99.90
19941;DHT22;10132;50.864;5.176;2022-09-13T07:50:56;21.10;99.90
19941;DHT22;10132;50.864;5.176;2022-09-13T07:52:58;21.00;99.90
19941;DHT22;10132;50.864;5.176;2022-09-13T07:55:00;21.00;99.90
19941;DHT22;10132;50.864;5.176;2022-09-13T07:57:02;21.00;99.90
19941;DHT22;10132;50.864;5.176;2022-09-13T07:59:06;21.30;99.90
19941;DHT22;10132;50.864;5.176;2022-09-13T08:01:11;21.40;99.90
19941;DHT22;10132;50.864;5.176;2022-09-13T08:03:14;21.40;99.90
19941;DHT22;10132;50.864;5.176;2022-09-13T08:05:16;21.10;99.90
19941;DHT22;10132;50.864;5.176;2022-09-13T08:07:18;20.90;99.90
19941;DHT22;10132;50.864;5.176;2022-09-13T08:09:20;21.10;99.90
19941;DHT22;10132;50.864;5.176;2022-09-13T08:11:24;21.20;99.90
19941;DHT22;10132;50.864;5.176;2022-09-13T08:13:26;21.30;99.90
19941;DHT22;10132;50.864;5.176;2022-09-13T08:15:28;21.20;99.90
19941;DHT22;10132;50.864;5.176;2022-09-13T08:17:31;21.20;99.90
19941;DHT22;10132;50.864;5.176;2022-09-13T08:19:33;21.20;99.90
19941;DHT22;10132;50.864;5.176;2022-09-13T08:21:36;21.10;99.90
19941;DHT22;10132;50.864;5.176;2022-09-13T08:23:41;21.10;99.90
19941;DHT22;10132;50.864;5.176;2022-09-13T08:25:43;21.00;99.90
19941;DHT22;10132;50.864;5.176;2022-09-13T08:27:45;21.10;99.90
19941;DHT22;10132;50.864;5.176;2022-09-13T08:29:47;21.20;99.90
19941;DHT22;10132;50.864;5.176;2022-09-13T08:31:49;21.50;99.90
19941;DHT22;10132;50.864;5.176;2022-09-13T08:33:52;21.70;99.90
19941;DHT22;10132;50.864;5.176;2022-09-13T08:35:55;22.00;99.90
19941;DHT22;10132;50.864;5.176;2022-09-13T08:37:58;22.50;99.90
19941;DHT22;10132;50.864;5.176;2022-09-13T08:40:00;22.80;99.90
19941;DHT22;10132;50.864;5.176;2022-09-13T08:42:15;23.10;99.90
19941;DHT22;10132;50.864;5.176;2022-09-13T08:44:25;23.00;99.90
19941;DHT22;10132;50.864;5.176;2022-09-13T08:46:32;22.80;99.90
19941;DHT22;10132;50.864;5.176;2022-09-13T08:48:39;22.60;99.90
19941;DHT22;10132;50.864;5.176;2022-09-13T08:50:45;22.50;99.90
19941;DHT22;10132;50.864;5.176;2022-09-13T08:53:03;22.50;99.90
19941;DHT22;10132;50.864;5.176;2022-09-13T08:55:18;22.60;99.90
19941;DHT22;10132;50.864;5.176;2022-09-13T08:57:27;22.80;99.90
19941;DHT22;10132;50.864;5.176;2022-09-13T08:59:49;22.90;99.90
19941;DHT22;10132;50.864;5.176;2022-09-13T09:02:05;22.80;99.90
19941;DHT22;10132;50.864;5.176;2022-09-13T09:04:16;23.10;99.90
19941;DHT22;10132;50.864;5.176;2022-09-13T09:06:25;23.40;99.90
19941;DHT22;10132;50.864;5.176;2022-09-13T09:08:31;23.40;99.90
19941;DHT22;10132;50.864;5.176;2022-09-13T09:10:38;23.70;99.90
19941;DHT22;10132;50.864;5.176;2022-09-13T09:12:44;23.60;99.90
19941;DHT22;10132;50.864;5.176;2022-09-13T09:14:55;23.80;99.90
19941;DHT22;10132;50.864;5.176;2022-09-13T09:17:00;24.00;99.90
19941;DHT22;10132;50.864;5.176;2022-09-13T09:19:13;24.00;99.90
19941;DHT22;10132;50.864;5.176;2022-09-13T09:21:18;24.10;99.90
19941;DHT22;10132;50.864;5.176;2022-09-13T09:23:24;24.10;99.90
19941;DHT22;10132;50.864;5.176;2022-09-13T09:25:27;24.00;99.90
19941;DHT22;10132;50.864;5.176;2022-09-13T09:27:30;24.00;99.90
19941;DHT22;10132;50.864;5.176;2022-09-13T09:29:33;24.10;99.90
19941;DHT22;10132;50.864;5.176;2022-09-13T09:31:44;24.30;99.90
19941;DHT22;10132;50.864;5.176;2022-09-13T09:33:59;24.50;99.90
19941;DHT22;10132;50.864;5.176;2022-09-13T09:36:04;24.40;99.90
19941;DHT22;10132;50.864;5.176;2022-09-13T09:38:27;24.20;99.90
19941;DHT22;10132;50.864;5.176;2022-09-13T09:40:33;23.90;99.90
19941;DHT22;10132;50.864;5.176;2022-09-13T09:42:40;23.90;99.90
19941;DHT22;10132;50.864;5.176;2022-09-13T09:44:45;24.20;99.90
19941;DHT22;10132;50.864;5.176;2022-09-13T09:46:54;24.50;99.90
19941;DHT22;10132;50.864;5.176;2022-09-13T09:49:03;24.60;99.90
19941;DHT22;10132;50.864;5.176;2022-09-13T09:51:29;24.60;99.90
19941;DHT22;10132;50.864;5.176;2022-09-13T09:53:36;24.50;99.90
19941;DHT22;10132;50.864;5.176;2022-09-13T09:55:44;24.40;99.90
19941;DHT22;10132;50.864;5.176;2022-09-13T09:57:53;24.50;99.90
19941;DHT22;10132;50.864;5.176;2022-09-13T10:00:09;24.70;99.90
19941;DHT22;10132;50.864;5.176;2022-09-13T10:02:15;24.70;99.90
19941;DHT22;10132;50.864;5.176;2022-09-13T10:04:20;25.10;99.90
19941;DHT22;10132;50.864;5.176;2022-09-13T10:06:24;25.30;99.90
19941;DHT22;10132;50.864;5.176;2022-09-13T10:08:29;25.00;99.90
19941;DHT22;10132;50.864;5.176;2022-09-13T10:10:37;25.20;99.90
19941;DHT22;10132;50.864;5.176;2022-09-13T10:12:42;25.40;99.90
19941;DHT22;10132;50.864;5.176;2022-09-13T10:14:45;25.60;99.90
19941;DHT22;10132;50.864;5.176;2022-09-13T10:17:01;25.40;99.90
19941;DHT22;10132;50.864;5.176;2022-09-13T10:19:23;25.20;99.90
19941;DHT22;10132;50.864;5.176;2022-09-13T10:21:26;25.10;99.90
19941;DHT22;10132;50.864;5.176;2022-09-13T10:23:29;25.00;99.90
19941;DHT22;10132;50.864;5.176;2022-09-13T10:25:30;25.00;99.90
19941;DHT22;10132;50.864;5.176;2022-09-13T10:27:35;25.30;99.90
19941;DHT22;10132;50.864;5.176;2022-09-13T10:29:38;25.50;99.90
19941;DHT22;10132;50.864;5.176;2022-09-13T10:31:44;25.50;99.90
19941;DHT22;10132;50.864;5.176;2022-09-13T10:33:55;25.60;99.90
19941;DHT22;10132;50.864;5.176;2022-09-13T10:36:01;25.80;99.90
19941;DHT22;10132;50.864;5.176;2022-09-13T10:38:03;25.80;99.90
19941;DHT22;10132;50.864;5.176;2022-09-13T10:40:07;26.00;99.90
19941;DHT22;10132;50.864;5.176;2022-09-13T10:42:20;25.90;99.90
19941;DHT22;10132;50.864;5.176;2022-09-13T10:44:29;26.00;99.90
19941;DHT22;10132;50.864;5.176;2022-09-13T10:46:34;25.70;99.90
19941;DHT22;10132;50.864;5.176;2022-09-13T10:48:47;25.50;99.90
19941;DHT22;10132;50.864;5.176;2022-09-13T10:51:04;25.30;99.90
19941;DHT22;10132;50.864;5.176;2022-09-13T10:53:29;25.20;99.90
19941;DHT22;10132;50.864;5.176;2022-09-13T10:55:34;25.40;99.90
19941;DHT22;10132;50.864;5.176;2022-09-13T10:57:37;25.50;99.90
19941;DHT22;10132;50.864;5.176;2022-09-13T10:59:40;25.60;99.90
19941;DHT22;10132;50.864;5.176;2022-09-13T11:01:52;25.60;99.90
19941;DHT22;10132;50.864;5.176;2022-09-13T11:04:28;25.60;99.90
19941;DHT22;10132;50.864;5.176;2022-09-13T11:06:41;25.40;99.90
19941;DHT22;10132;50.864;5.176;2022-09-13T11:08:53;25.20;99.90
19941;DHT22;10132;50.864;5.176;2022-09-13T11:11:06;25.10;99.90
19941;DHT22;10132;50.864;5.176;2022-09-13T11:13:18;25.10;99.90
19941;DHT22;10132;50.864;5.176;2022-09-13T11:15:35;25.10;99.90
19941;DHT22;10132;50.864;5.176;2022-09-13T11:17:58;25.10;99.90
19941;DHT22;10132;50.864;5.176;2022-09-13T11:20:17;25.30;99.90
19941;DHT22;10132;50.864;5.176;2022-09-13T11:22:40;25.50;99.90
19941;DHT22;10132;50.864;5.176;2022-09-13T11:24:59;25.80;99.90
19941;DHT22;10132;50.864;5.176;2022-09-13T11:27:10;25.80;99.90
19941;DHT22;10132;50.864;5.176;2022-09-13T11:29:42;26.00;99.90
19941;DHT22;10132;50.864;5.176;2022-09-13T11:31:56;26.10;99.90
19941;DHT22;10132;50.864;5.176;2022-09-13T11:34:10;26.20;99.90
19941;DHT22;10132;50.864;5.176;2022-09-13T11:36:37;26.00;99.90
19941;DHT22;10132;50.864;5.176;2022-09-13T11:38:51;26.10;99.90
19941;DHT22;10132;50.864;5.176;2022-09-13T11:41:03;26.20;99.90
19941;DHT22;10132;50.864;5.176;2022-09-13T11:43:24;26.50;99.90
19941;DHT22;10132;50.864;5.176;2022-09-13T11:45:30;27.20;99.90
19941;DHT22;10132;50.864;5.176;2022-09-13T11:47:47;27.70;99.90
19941;DHT22;10132;50.864;5.176;2022-09-13T11:50:05;27.90;99.90
19941;DHT22;10132;50.864;5.176;2022-09-13T11:52:21;27.30;99.90
19941;DHT22;10132;50.864;5.176;2022-09-13T11:54:36;27.00;99.90
19941;DHT22;10132;50.864;5.176;2022-09-13T11:56:41;26.80;99.90
19941;DHT22;10132;50.864;5.176;2022-09-13T11:58:47;27.00;99.90
19941;DHT22;10132;50.864;5.176;2022-09-13T12:00:54;27.00;99.90
19941;DHT22;10132;50.864;5.176;2022-09-13T12:03:02;27.20;99.90
19941;DHT22;10132;50.864;5.176;2022-09-13T12:05:12;27.40;99.90
19941;DHT22;10132;50.864;5.176;2022-09-13T12:07:22;27.40;99.90
19941;DHT22;10132;50.864;5.176;2022-09-13T12:09:29;27.70;99.90
19941;DHT22;10132;50.864;5.176;2022-09-13T12:11:38;27.80;99.90
19941;DHT22;10132;50.864;5.176;2022-09-13T12:13:46;27.70;99.90
19941;DHT22;10132;50.864;5.176;2022-09-13T12:15:52;27.40;99.90
19941;DHT22;10132;50.864;5.176;2022-09-13T12:18:00;27.20;99.90
19941;DHT22;10132;50.864;5.176;2022-09-13T12:20:10;27.00;99.90
19941;DHT22;10132;50.864;5.176;2022-09-13T12:22:14;27.10;99.90
19941;DHT22;10132;50.864;5.176;2022-09-13T12:24:20;26.80;99.90
19941;DHT22;10132;50.864;5.176;2022-09-13T12:26:29;26.60;99.90
19941;DHT22;10132;50.864;5.176;2022-09-13T12:28:36;26.60;99.90
19941;DHT22;10132;50.864;5.176;2022-09-13T12:30:44;26.70;99.90
19941;DHT22;10132;50.864;5.176;2022-09-13T12:32:48;26.90;99.90
19941;DHT22;10132;50.864;5.176;2022-09-13T12:34:58;27.00;99.90
19941;DHT22;10132;50.864;5.176;2022-09-13T12:39:55;27.20;99.90
19941;DHT22;10132;50.864;5.176;2022-09-13T12:44:51;27.20;99.90
19941;DHT22;10132;50.864;5.176;2022-09-13T12:47:24;27.10;99.90
19941;DHT22;10132;50.864;5.176;2022-09-13T12:49:36;27.20;99.90
19941;DHT22;10132;50.864;5.176;2022-09-13T12:51:59;27.00;99.90
19941;DHT22;10132;50.864;5.176;2022-09-13T12:54:33;26.90;99.90
19941;DHT22;10132;50.864;5.176;2022-09-13T12:56:53;26.50;99.90
19941;DHT22;10132;50.864;5.176;2022-09-13T12:59:27;26.80;99.90
19941;DHT22;10132;50.864;5.176;2022-09-13T13:01:35;26.70;99.90
19941;DHT22;10132;50.864;5.176;2022-09-13T13:03:47;26.50;99.90
19941;DHT22;10132;50.864;5.176;2022-09-13T13:06:05;26.60;99.90
19941;DHT22;10132;50.864;5.176;2022-09-13T13:08:27;26.50;99.90
19941;DHT22;10132;50.864;5.176;2022-09-13T13:10:31;26.50;99.90
19941;DHT22;10132;50.864;5.176;2022-09-13T13:12:35;26.10;99.90
19941;DHT22;10132;50.864;5.176;2022-09-13T13:14:48;26.10;99.90
19941;DHT22;10132;50.864;5.176;2022-09-13T13:16:53;25.80;99.90
19941;DHT22;10132;50.864;5.176;2022-09-13T13:18:56;25.70;99.90
19941;DHT22;10132;50.864;5.176;2022-09-13T13:23:39;26.10;99.90
19941;DHT22;10132;50.864;5.176;2022-09-13T13:25:57;26.10;99.90
19941;DHT22;10132;50.864;5.176;2022-09-13T13:28:00;26.20;99.90
19941;DHT22;10132;50.864;5.176;2022-09-13T13:33:04;26.50;99.90
19941;DHT22;10132;50.864;5.176;2022-09-13T13:35:26;26.60;99.90
19941;DHT22;10132;50.864;5.176;2022-09-13T13:37:34;26.50;99.90